createdAt,value
2023-06-08T00:00:36.857Z,15.84
2023-06-08T00:02:08.291Z,17.92
2023-06-08T00:03:40.205Z,17.85
2023-06-08T00:05:12.265Z,17.05
2023-06-08T00:06:44.010Z,18.11
2023-06-08T00:08:15.470Z,19.74
2023-06-08T00:09:46.954Z,17.77
2023-06-08T00:11:18.297Z,17.19
2023-06-08T00:12:49.911Z,16.83
2023-06-08T00:14:21.319Z,20.43
2023-06-08T00:15:52.861Z,18.52
2023-06-08T00:17:24.299Z,18.64
2023-06-08T00:18:55.836Z,18.70
2023-06-08T00:20:27.349Z,15.36
2023-06-08T00:21:59.007Z,18.83
2023-06-08T00:23:30.569Z,17.82
2023-06-08T00:25:02.157Z,17.67
2023-06-08T00:26:33.526Z,20.24
2023-06-08T00:28:04.908Z,18.70
2023-06-08T00:29:36.395Z,21.51
2023-06-08T00:31:08.415Z,19.78
2023-06-08T00:32:39.949Z,20.18
2023-06-08T00:34:11.300Z,18.71
2023-06-08T00:35:42.935Z,19.71
2023-06-08T00:37:14.570Z,20.11
2023-06-08T00:38:46.163Z,19.65
2023-06-08T00:40:17.594Z,20.78
2023-06-08T00:41:49.051Z,19.32
2023-06-08T00:43:20.470Z,17.91
2023-06-08T00:44:52.013Z,20.81
2023-06-08T00:46:23.614Z,18.63
2023-06-08T00:47:55.169Z,17.18
2023-06-08T00:49:26.741Z,17.35
2023-06-08T00:50:58.125Z,19.74
2023-06-08T00:52:29.874Z,17.92
2023-06-08T00:54:01.242Z,17.99
2023-06-08T00:55:32.672Z,21.45
2023-06-08T00:57:03.981Z,19.84
2023-06-08T00:58:35.347Z,20.44
2023-06-08T01:00:07.115Z,22.39
2023-06-08T01:01:38.885Z,21.40
2023-06-08T01:03:10.388Z,17.62
2023-06-08T01:04:41.862Z,18.29
2023-06-08T01:06:13.259Z,18.23
2023-06-08T01:07:44.700Z,18.38
2023-06-08T01:09:16.227Z,18.73
2023-06-08T01:10:47.621Z,19.51
2023-06-08T01:12:19.149Z,19.32
2023-06-08T01:13:50.657Z,18.85
2023-06-08T01:15:22.428Z,19.26
2023-06-08T01:16:54.084Z,18.76
2023-06-08T01:18:25.571Z,19.01
2023-06-08T01:19:56.966Z,19.40
2023-06-08T01:21:28.284Z,19.10
2023-06-08T01:22:59.608Z,18.77
2023-06-08T01:24:30.967Z,19.42
2023-06-08T01:26:02.280Z,19.61
2023-06-08T01:27:33.873Z,20.76
2023-06-08T01:29:05.421Z,20.26
2023-06-08T01:30:38.178Z,18.65
2023-06-08T01:32:09.615Z,21.67
2023-06-08T01:33:41.162Z,20.35
2023-06-08T01:35:12.539Z,18.91
2023-06-08T01:36:44.067Z,20.58
2023-06-08T01:38:15.502Z,19.93
2023-06-08T01:39:46.841Z,18.34
2023-06-08T01:41:18.601Z,17.79
2023-06-08T01:42:49.944Z,20.25
2023-06-08T01:44:21.300Z,21.64
2023-06-08T01:45:52.849Z,18.40
2023-06-08T01:47:24.404Z,20.83
2023-06-08T01:48:56.329Z,18.29
2023-06-08T01:50:27.640Z,20.18
2023-06-08T01:51:59.184Z,18.14
2023-06-08T01:53:30.644Z,19.00
2023-06-08T01:55:02.133Z,19.39
2023-06-08T01:56:33.576Z,19.63
2023-06-08T01:58:04.934Z,18.33
2023-06-08T01:59:37.444Z,18.48
2023-06-08T02:01:09.096Z,19.75
2023-06-08T02:02:40.601Z,17.94
2023-06-08T02:04:12.010Z,22.19
2023-06-08T02:05:43.478Z,21.15
2023-06-08T02:07:15.045Z,18.04
2023-06-08T02:08:46.678Z,19.64
2023-06-08T02:10:18.089Z,18.15
2023-06-08T02:11:49.401Z,21.52
2023-06-08T02:13:20.944Z,20.04
2023-06-08T02:14:52.606Z,22.65
2023-06-08T02:16:24.060Z,20.70
2023-06-08T02:17:55.556Z,17.53
2023-06-08T02:19:26.896Z,17.99
2023-06-08T02:20:58.295Z,18.13
2023-06-08T02:22:29.933Z,22.08
2023-06-08T02:24:01.449Z,17.03
2023-06-08T02:25:33.018Z,19.77
2023-06-08T02:27:04.487Z,20.45
2023-06-08T02:28:35.835Z,19.39
2023-06-08T02:30:07.473Z,20.64
2023-06-08T02:31:39.262Z,21.50
2023-06-08T02:33:10.654Z,21.19
2023-06-08T02:34:41.994Z,25.55
2023-06-08T02:36:13.264Z,21.53
2023-06-08T02:37:44.642Z,19.64
2023-06-08T02:39:16.037Z,22.34
2023-06-08T02:40:47.542Z,18.81
2023-06-08T02:42:18.896Z,16.08
2023-06-08T02:43:50.709Z,18.92
2023-06-08T02:45:22.015Z,19.42
2023-06-08T02:46:53.396Z,21.32
2023-06-08T02:48:24.996Z,19.96
2023-06-08T02:49:56.355Z,19.81
2023-06-08T02:51:27.780Z,19.57
2023-06-08T02:52:59.178Z,19.18
2023-06-08T02:54:30.503Z,19.82
2023-06-08T02:56:01.784Z,19.67
2023-06-08T02:57:33.291Z,20.36
2023-06-08T02:59:07.170Z,18.31
2023-06-08T03:00:38.860Z,19.43
2023-06-08T03:02:10.185Z,19.21
2023-06-08T03:03:41.714Z,21.61
2023-06-08T03:05:13.093Z,20.06
2023-06-08T03:06:44.535Z,20.34
2023-06-08T03:08:16.209Z,23.13
2023-06-08T03:09:47.652Z,19.93
2023-06-08T03:11:19.046Z,20.96
2023-06-08T03:12:50.373Z,21.27
2023-06-08T03:14:21.764Z,18.35
2023-06-08T03:15:53.400Z,21.35
2023-06-08T03:17:24.834Z,22.11
2023-06-08T03:18:56.166Z,16.92
2023-06-08T03:20:27.604Z,20.87
2023-06-08T03:21:58.976Z,21.37
2023-06-08T03:23:30.377Z,21.19
2023-06-08T03:25:01.918Z,21.40
2023-06-08T03:26:33.308Z,22.14
2023-06-08T03:28:04.712Z,22.28
2023-06-08T03:29:36.223Z,22.33
2023-06-08T03:31:07.524Z,19.61
2023-06-08T03:32:38.906Z,21.24
2023-06-08T03:34:10.227Z,18.81
2023-06-08T03:35:41.613Z,19.23
2023-06-08T03:37:12.965Z,20.57
2023-06-08T03:38:44.314Z,21.03
2023-06-08T03:40:15.626Z,20.70
2023-06-08T03:41:47.147Z,21.08
2023-06-08T03:43:18.557Z,19.90
2023-06-08T03:44:50.241Z,20.52
2023-06-08T03:46:22.149Z,20.98
2023-06-08T03:47:53.682Z,21.05
2023-06-08T03:49:25.050Z,20.31
2023-06-08T03:50:56.374Z,23.89
2023-06-08T03:52:28.014Z,21.32
2023-06-08T03:53:59.496Z,19.82
2023-06-08T03:55:30.843Z,22.29
2023-06-08T03:57:02.220Z,20.96
2023-06-08T03:58:33.565Z,20.74
2023-06-08T04:00:06.452Z,19.70
2023-06-08T04:01:37.790Z,19.95
2023-06-08T04:03:09.274Z,18.67
2023-06-08T04:04:40.873Z,21.34
2023-06-08T04:06:12.390Z,20.64
2023-06-08T04:07:43.792Z,23.14
2023-06-08T04:09:15.146Z,21.57
2023-06-08T04:10:46.562Z,18.48
2023-06-08T04:12:17.902Z,21.63
2023-06-08T04:13:51.127Z,18.82
2023-06-08T04:15:22.830Z,21.91
2023-06-08T04:16:54.131Z,21.01
2023-06-08T04:18:25.436Z,20.09
2023-06-08T04:19:56.738Z,20.79
2023-06-08T04:21:28.123Z,22.65
2023-06-08T04:22:59.683Z,20.66
2023-06-08T04:24:31.063Z,20.66
2023-06-08T04:26:02.430Z,20.84
2023-06-08T04:27:33.804Z,23.19
2023-06-08T04:29:05.333Z,22.45
2023-06-08T04:30:36.845Z,20.80
2023-06-08T04:32:08.431Z,22.20
2023-06-08T04:33:39.761Z,21.73
2023-06-08T04:35:11.056Z,19.45
2023-06-08T04:36:42.443Z,20.06
2023-06-08T04:38:14.553Z,20.14
2023-06-08T04:39:47.267Z,20.58
2023-06-08T04:41:18.558Z,22.69
2023-06-08T04:42:50.183Z,20.04
2023-06-08T04:44:21.586Z,21.43
2023-06-08T04:45:53.259Z,21.17
2023-06-08T04:47:24.759Z,22.69
2023-06-08T04:48:56.335Z,24.18
2023-06-08T04:50:28.752Z,23.02
2023-06-08T04:52:00.410Z,20.33
2023-06-08T04:53:31.779Z,21.61
2023-06-08T04:55:03.221Z,22.09
2023-06-08T04:56:34.803Z,18.38
2023-06-08T04:58:06.261Z,22.50
2023-06-08T04:59:37.611Z,21.37
2023-06-08T05:01:09.048Z,20.25
2023-06-08T05:02:40.574Z,22.76
2023-06-08T05:04:12.112Z,21.88
2023-06-08T05:05:43.569Z,22.04
2023-06-08T05:07:15.029Z,20.47
2023-06-08T05:08:46.520Z,20.80
2023-06-08T05:10:17.882Z,22.18
2023-06-08T05:11:49.715Z,22.47
2023-06-08T05:13:21.049Z,25.42
2023-06-08T05:14:52.370Z,21.41
2023-06-08T05:16:26.623Z,21.93
2023-06-08T05:17:58.744Z,20.57
2023-06-08T05:19:30.120Z,19.15
2023-06-08T05:21:02.652Z,20.23
2023-06-08T05:22:34.284Z,20.52
2023-06-08T05:24:05.665Z,19.93
2023-06-08T05:25:37.285Z,20.46
2023-06-08T05:27:08.641Z,18.12
2023-06-08T05:28:40.202Z,19.66
2023-06-08T05:30:11.605Z,22.06
2023-06-08T05:31:43.171Z,20.21
2023-06-08T05:33:14.563Z,19.58
2023-06-08T05:34:46.100Z,19.98
2023-06-08T05:36:17.409Z,20.59
2023-06-08T05:37:48.783Z,21.70
2023-06-08T05:39:20.286Z,18.05
2023-06-08T05:40:51.631Z,21.45
2023-06-08T05:42:22.956Z,19.83
2023-06-08T05:43:54.537Z,20.02
2023-06-08T05:45:26.037Z,19.83
2023-06-08T05:46:57.379Z,18.87
2023-06-08T05:48:28.824Z,22.22
2023-06-08T05:50:00.265Z,19.83
2023-06-08T05:51:31.620Z,22.43
2023-06-08T05:53:03.330Z,20.35
2023-06-08T05:54:35.124Z,20.50
2023-06-08T05:56:06.438Z,19.80
2023-06-08T05:57:37.862Z,20.68
2023-06-08T05:59:09.261Z,19.35
2023-06-08T06:00:40.697Z,19.57
2023-06-08T06:02:12.034Z,19.17
2023-06-08T06:03:43.580Z,18.34
2023-06-08T06:05:15.421Z,20.72
2023-06-08T06:06:46.887Z,16.75
2023-06-08T06:08:18.327Z,17.90
2023-06-08T06:09:49.661Z,19.81
2023-06-08T06:11:21.010Z,18.66
2023-06-08T06:12:52.458Z,18.22
2023-06-08T06:14:24.046Z,17.55
2023-06-08T06:15:55.512Z,18.95
2023-06-08T06:17:27.048Z,18.34
2023-06-08T06:18:58.499Z,21.28
2023-06-08T06:20:29.961Z,21.22
2023-06-08T06:22:01.416Z,19.58
2023-06-08T06:23:32.799Z,21.37
2023-06-08T06:25:04.210Z,20.85
2023-06-08T06:26:35.536Z,20.06
2023-06-08T06:28:07.063Z,19.43
2023-06-08T06:29:38.447Z,21.17
2023-06-08T06:31:09.758Z,20.61
2023-06-08T06:32:41.681Z,19.30
2023-06-08T06:34:13.032Z,19.55
2023-06-08T06:35:44.412Z,17.84
2023-06-08T06:37:15.746Z,20.85
2023-06-08T06:38:47.274Z,18.32
2023-06-08T06:40:18.612Z,19.78
2023-06-08T06:41:50.053Z,18.95
2023-06-08T06:43:21.560Z,18.61
2023-06-08T06:44:52.929Z,19.55
2023-06-08T06:46:24.289Z,20.30
2023-06-08T06:47:55.795Z,18.27
2023-06-08T06:49:27.265Z,16.69
2023-06-08T06:50:58.601Z,19.46
2023-06-08T06:52:30.150Z,19.45
2023-06-08T06:54:01.474Z,20.15
2023-06-08T06:55:32.906Z,19.21
2023-06-08T06:57:04.383Z,18.28
2023-06-08T06:58:35.785Z,21.02
2023-06-08T07:00:07.587Z,19.55
2023-06-08T07:01:39.466Z,20.99
2023-06-08T07:03:11.009Z,19.90
2023-06-08T07:04:42.608Z,19.27
2023-06-08T07:06:13.916Z,20.49
2023-06-08T07:07:46.865Z,18.59
2023-06-08T07:09:18.274Z,20.22
2023-06-08T07:10:49.621Z,19.58
2023-06-08T07:12:21.010Z,20.90
2023-06-08T07:13:52.535Z,20.28
2023-06-08T07:15:25.232Z,21.32
2023-06-08T07:16:56.976Z,19.65
2023-06-08T07:18:28.338Z,19.77
2023-06-08T07:19:59.808Z,17.79
2023-06-08T07:21:40.233Z,17.66
2023-06-08T07:23:36.060Z,21.94
2023-06-08T07:26:02.440Z,22.54
2023-06-08T07:27:59.269Z,19.57
2023-06-08T07:29:30.723Z,21.40
2023-06-08T07:31:02.163Z,21.71
2023-06-08T07:32:33.756Z,18.68
2023-06-08T07:34:05.386Z,20.53
2023-06-08T07:35:36.768Z,20.70
2023-06-08T07:37:08.118Z,20.71
2023-06-08T07:38:39.523Z,20.08
2023-06-08T07:40:11.105Z,19.42
2023-06-08T07:41:42.702Z,16.37
2023-06-08T07:43:14.015Z,18.33
2023-06-08T07:44:45.433Z,17.55
2023-06-08T07:46:16.840Z,18.36
2023-06-08T07:47:48.362Z,18.52
2023-06-08T07:49:19.798Z,21.52
2023-06-08T07:50:51.212Z,21.50
2023-06-08T07:52:22.579Z,21.84
2023-06-08T07:53:53.965Z,24.92
2023-06-08T07:55:25.435Z,20.94
2023-06-08T07:56:56.910Z,20.85
2023-06-08T07:58:28.326Z,22.01
2023-06-08T07:59:59.841Z,20.75
2023-06-08T08:01:31.322Z,21.83
2023-06-08T08:03:02.984Z,22.69
2023-06-08T08:04:34.627Z,21.46
2023-06-08T08:06:05.960Z,20.46
2023-06-08T08:07:37.433Z,21.67
2023-06-08T08:09:08.831Z,22.69
2023-06-08T08:10:40.229Z,22.36
2023-06-08T08:12:11.602Z,20.80
2023-06-08T08:13:43.176Z,20.65
2023-06-08T08:15:14.569Z,22.87
2023-06-08T08:16:46.054Z,19.58
2023-06-08T08:18:17.564Z,22.07
2023-06-08T08:19:48.984Z,19.98
2023-06-08T08:21:20.386Z,18.49
2023-06-08T08:22:52.272Z,20.29
2023-06-08T08:24:23.823Z,20.78
2023-06-08T08:25:55.184Z,19.59
2023-06-08T08:27:26.867Z,19.01
2023-06-08T08:28:58.345Z,18.73
2023-06-08T08:30:29.811Z,19.34
2023-06-08T08:32:01.329Z,21.15
2023-06-08T08:33:32.734Z,23.37
2023-06-08T08:35:04.086Z,19.84
2023-06-08T08:36:35.914Z,18.79
2023-06-08T08:38:07.263Z,19.64
2023-06-08T08:39:39.262Z,18.46
2023-06-08T08:41:10.824Z,19.92
2023-06-08T08:42:42.309Z,20.03
2023-06-08T08:44:13.786Z,17.90
2023-06-08T08:45:45.256Z,18.35
2023-06-08T08:47:17.021Z,18.43
2023-06-08T08:48:48.472Z,18.61
2023-06-08T08:50:20.038Z,16.53
2023-06-08T08:51:51.416Z,19.49
2023-06-08T08:53:22.891Z,20.29
2023-06-08T08:54:54.448Z,20.41
2023-06-08T08:56:25.870Z,17.14
2023-06-08T08:57:57.236Z,19.63
2023-06-08T08:59:28.687Z,22.62
2023-06-08T09:01:00.210Z,18.43
2023-06-08T09:02:31.623Z,20.92
2023-06-08T09:04:03.242Z,17.03
2023-06-08T09:05:34.626Z,18.74
2023-06-08T09:07:06.169Z,18.41
2023-06-08T09:08:37.596Z,18.94
2023-06-08T09:10:14.128Z,21.78
2023-06-08T09:11:45.558Z,17.37
2023-06-08T09:13:16.914Z,17.28
2023-06-08T09:14:48.506Z,19.36
2023-06-08T09:16:21.072Z,18.58
2023-06-08T09:18:02.739Z,20.17
2023-06-08T09:19:34.261Z,23.54
2023-06-08T09:21:05.627Z,19.66
2023-06-08T09:22:37.287Z,17.48
2023-06-08T09:24:18.833Z,18.26
2023-06-08T09:25:50.558Z,18.04
2023-06-08T09:27:22.155Z,16.59
2023-06-08T09:28:53.603Z,16.28
2023-06-08T09:31:48.901Z,18.80
2023-06-08T09:33:20.612Z,19.03
2023-06-08T09:34:57.851Z,17.69
2023-06-08T09:36:31.742Z,17.33
2023-06-08T09:38:03.155Z,16.74
2023-06-08T09:39:34.829Z,17.10
2023-06-08T09:41:06.257Z,16.37
2023-06-08T09:42:42.707Z,16.44
2023-06-08T09:44:14.198Z,16.35
2023-06-08T09:45:45.633Z,15.09
2023-06-08T09:47:17.035Z,15.49
2023-06-08T09:48:48.437Z,14.59
2023-06-08T09:50:19.858Z,16.28
2023-06-08T09:51:51.955Z,16.10
2023-06-08T09:53:23.981Z,16.52
2023-06-08T09:54:55.489Z,13.69
2023-06-08T09:56:27.021Z,15.13
2023-06-08T09:57:58.892Z,13.51
2023-06-08T09:59:30.369Z,16.40
2023-06-08T10:01:02.120Z,16.05
2023-06-08T10:02:33.676Z,17.61
2023-06-08T10:04:06.451Z,16.64
2023-06-08T10:05:38.190Z,16.16
2023-06-08T10:07:09.672Z,13.57
2023-06-08T10:08:41.175Z,14.77
2023-06-08T10:10:12.611Z,14.35
2023-06-08T10:11:44.081Z,13.76
2023-06-08T10:13:15.488Z,13.64
2023-06-08T10:14:46.904Z,13.56
2023-06-08T10:16:18.445Z,12.37
2023-06-08T10:17:59.933Z,13.07
2023-06-08T10:19:31.438Z,13.00
2023-06-08T10:21:02.808Z,14.65
2023-06-08T10:22:34.265Z,15.47
2023-06-08T10:24:05.663Z,14.22
2023-06-08T10:25:37.154Z,16.98
2023-06-08T10:27:08.548Z,13.98
2023-06-08T10:28:40.214Z,13.66
2023-06-08T10:30:12.797Z,14.53
2023-06-08T10:31:44.386Z,13.51
2023-06-08T10:33:15.888Z,16.70
2023-06-08T10:34:47.523Z,16.41
2023-06-08T10:36:18.951Z,15.07
2023-06-08T10:37:50.418Z,15.42
2023-06-08T10:39:21.883Z,11.59
2023-06-08T10:40:53.354Z,13.05
2023-06-08T10:42:24.794Z,14.29
2023-06-08T10:43:56.202Z,13.62
2023-06-08T10:45:27.682Z,13.74
2023-06-08T10:46:59.246Z,13.60
2023-06-08T10:48:30.645Z,14.28
2023-06-08T10:50:02.271Z,12.75
2023-06-08T10:51:33.724Z,12.46
2023-06-08T10:53:05.175Z,12.78
2023-06-08T10:54:36.616Z,11.17
2023-06-08T10:56:08.054Z,11.61
2023-06-08T10:57:39.565Z,12.62
2023-06-08T10:59:11.350Z,11.28
2023-06-08T11:00:42.960Z,11.27
2023-06-08T11:02:14.350Z,13.75
2023-06-08T11:03:45.970Z,12.49
2023-06-08T11:05:17.893Z,13.43
2023-06-08T11:06:49.445Z,12.94
2023-06-08T11:08:21.217Z,11.77
2023-06-08T11:09:52.694Z,11.83
2023-06-08T11:11:24.120Z,13.31
2023-06-08T11:12:58.046Z,11.77
2023-06-08T11:14:29.912Z,10.67
2023-06-08T11:16:01.588Z,12.96
2023-06-08T11:17:33.229Z,11.81
2023-06-08T11:19:04.699Z,10.57
2023-06-08T11:20:36.249Z,13.17
2023-06-08T11:22:07.696Z,10.92
2023-06-08T11:23:39.219Z,9.53
2023-06-08T11:25:10.953Z,9.55
2023-06-08T11:26:52.263Z,12.76
2023-06-08T11:28:31.358Z,10.21
2023-06-08T11:30:03.000Z,10.80
2023-06-08T11:31:34.721Z,11.21
2023-06-08T11:33:11.413Z,11.47
2023-06-08T11:35:09.006Z,10.14
2023-06-08T11:37:44.409Z,9.45
2023-06-08T11:39:17.166Z,8.73
2023-06-08T11:40:48.943Z,9.96
2023-06-08T11:42:20.491Z,8.81
2023-06-08T11:43:52.034Z,8.52
2023-06-08T11:45:23.555Z,9.46
2023-06-08T11:46:56.019Z,10.69
2023-06-08T11:48:27.628Z,11.84
2023-06-08T11:49:59.240Z,9.41
2023-06-08T11:51:31.185Z,9.12
2023-06-08T11:53:02.735Z,10.03
2023-06-08T11:54:34.463Z,8.09
2023-06-08T11:56:06.133Z,8.67
2023-06-08T11:57:37.718Z,8.78
2023-06-08T11:59:09.538Z,9.83
2023-06-08T12:00:41.097Z,9.26
2023-06-08T12:02:24.215Z,8.93
2023-06-08T12:03:56.081Z,9.88
2023-06-08T12:05:27.763Z,9.00
2023-06-08T12:06:59.642Z,8.40
2023-06-08T12:08:31.151Z,8.37
2023-06-08T12:10:02.915Z,8.48
2023-06-08T12:11:34.454Z,8.50
2023-06-08T12:13:05.965Z,8.30
2023-06-08T12:14:37.689Z,7.83
2023-06-08T12:16:09.193Z,7.96
2023-06-08T12:17:40.897Z,8.51
2023-06-08T12:19:18.047Z,10.77
2023-06-08T12:20:49.633Z,9.75
2023-06-08T12:22:21.191Z,9.51
2023-06-08T12:24:02.784Z,8.60
2023-06-08T12:25:34.493Z,8.40
2023-06-08T12:27:16.019Z,7.87
2023-06-08T12:28:55.338Z,8.16
2023-06-08T12:30:31.927Z,7.98
2023-06-08T12:32:04.159Z,8.29
2023-06-08T12:33:35.953Z,8.13
2023-06-08T12:35:13.619Z,7.63
2023-06-08T12:36:45.269Z,7.36
2023-06-08T12:38:16.826Z,7.49
2023-06-08T12:39:48.689Z,7.64
2023-06-08T12:41:20.279Z,10.73
2023-06-08T12:42:56.861Z,8.82
2023-06-08T12:44:28.571Z,6.64
2023-06-08T12:46:10.224Z,7.35
2023-06-08T12:47:41.891Z,6.78
2023-06-08T12:49:13.707Z,5.49
2023-06-08T12:50:50.552Z,6.59
2023-06-08T12:52:22.902Z,8.82
2023-06-08T12:54:04.708Z,9.16
2023-06-08T12:55:36.273Z,8.05
2023-06-08T12:57:13.081Z,7.62
2023-06-08T12:58:44.761Z,6.68
2023-06-08T13:00:16.840Z,7.51
2023-06-08T13:01:53.578Z,7.59
2023-06-08T13:03:25.405Z,8.00
2023-06-08T13:04:57.078Z,8.46
2023-06-08T13:06:28.628Z,8.43
2023-06-08T13:08:00.313Z,6.92
2023-06-08T13:09:31.921Z,7.33
2023-06-08T13:11:03.577Z,6.89
2023-06-08T13:12:35.231Z,8.39
2023-06-08T13:14:07.103Z,7.17
2023-06-08T13:15:38.754Z,8.12
2023-06-08T13:17:10.664Z,7.75
2023-06-08T13:18:52.384Z,7.31
2023-06-08T13:20:24.060Z,6.49
2023-06-08T13:21:55.726Z,6.27
2023-06-08T13:23:27.456Z,6.76
2023-06-08T13:24:59.330Z,6.78
2023-06-08T13:26:40.954Z,6.98
2023-06-08T13:28:12.727Z,7.17
2023-06-08T13:29:44.385Z,7.10
2023-06-08T13:31:16.150Z,6.72
2023-06-08T13:32:49.003Z,6.50
2023-06-08T13:34:20.747Z,8.66
2023-06-08T13:35:52.728Z,7.53
2023-06-08T13:37:24.493Z,5.93
2023-06-08T13:38:57.182Z,6.37
2023-06-08T13:40:28.833Z,6.31
2023-06-08T13:42:01.527Z,5.46
2023-06-08T13:43:33.356Z,6.21
2023-06-08T13:45:25.068Z,7.16
2023-06-08T13:46:56.807Z,5.64
2023-06-08T13:48:28.576Z,6.02
2023-06-08T13:50:00.200Z,5.15
2023-06-08T13:51:31.829Z,6.06
2023-06-08T13:53:03.557Z,6.78
2023-06-08T13:54:35.230Z,4.41
2023-06-08T13:56:06.831Z,5.40
2023-06-08T13:57:43.451Z,5.85
2023-06-08T13:59:15.065Z,5.63
2023-06-08T14:00:46.833Z,6.09
2023-06-08T14:02:18.454Z,7.46
2023-06-08T14:03:50.307Z,6.17
2023-06-08T14:05:22.348Z,4.79
2023-06-08T14:06:54.100Z,4.76
2023-06-08T14:08:25.701Z,7.66
2023-06-08T14:10:02.424Z,5.86
2023-06-08T14:11:34.083Z,5.47
2023-06-08T14:13:05.955Z,7.74
2023-06-08T14:14:40.170Z,6.42
2023-06-08T14:16:12.233Z,6.36
2023-06-08T14:17:44.028Z,7.00
2023-06-08T14:19:20.632Z,5.24
2023-06-08T14:20:52.275Z,6.52
2023-06-08T14:22:23.925Z,7.26
2023-06-08T14:23:57.439Z,5.90
2023-06-08T14:25:42.602Z,5.89
2023-06-08T14:27:14.322Z,6.87
2023-06-08T14:28:46.024Z,6.56
2023-06-08T14:30:17.663Z,5.23
2023-06-08T14:31:49.535Z,6.26
2023-06-08T14:33:21.454Z,6.25
2023-06-08T14:34:53.169Z,5.67
2023-06-08T14:36:24.856Z,5.62
2023-06-08T14:37:56.987Z,5.19
2023-06-08T14:39:36.759Z,5.55
2023-06-08T14:41:10.028Z,4.48
2023-06-08T14:42:41.769Z,6.25
2023-06-08T14:44:13.454Z,4.58
2023-06-08T14:45:45.103Z,5.79
2023-06-08T14:47:16.945Z,5.00
2023-06-08T14:48:48.748Z,5.77
2023-06-08T14:50:20.339Z,4.99
2023-06-08T14:51:52.000Z,4.78
2023-06-08T14:53:24.533Z,3.90
2023-06-08T14:55:06.161Z,4.35
2023-06-08T14:56:37.976Z,4.42
2023-06-08T14:58:19.595Z,6.33
2023-06-08T14:59:51.553Z,3.73
2023-06-08T15:01:23.261Z,4.01
2023-06-08T15:03:17.068Z,3.85
2023-06-08T15:04:58.920Z,3.70
2023-06-08T15:06:31.055Z,5.13
2023-06-08T15:08:02.965Z,5.45
2023-06-08T15:09:34.649Z,4.72
2023-06-08T15:11:06.419Z,4.58
2023-06-08T15:12:38.121Z,4.34
2023-06-08T15:14:09.966Z,4.18
2023-06-08T15:15:42.244Z,4.47
2023-06-08T15:17:14.007Z,4.10
2023-06-08T15:18:45.717Z,4.89
2023-06-08T15:20:17.421Z,4.53
2023-06-08T15:21:49.113Z,4.30
2023-06-08T15:23:20.759Z,3.17
2023-06-08T15:24:58.264Z,3.86
2023-06-08T15:26:30.013Z,3.75
2023-06-08T15:28:01.929Z,3.31
2023-06-08T15:29:34.794Z,3.92
2023-06-08T15:31:06.474Z,3.58
2023-06-08T15:32:38.216Z,2.98
2023-06-08T15:34:14.879Z,5.04
2023-06-08T15:35:46.552Z,5.80
2023-06-08T15:37:28.484Z,4.62
2023-06-08T15:39:05.268Z,3.81
2023-06-08T15:40:37.097Z,4.44
2023-06-08T15:42:23.869Z,4.10
2023-06-08T15:44:00.679Z,3.95
2023-06-08T15:46:12.670Z,4.36
2023-06-08T15:47:54.460Z,4.60
2023-06-08T15:49:31.302Z,4.29
2023-06-08T15:51:03.251Z,6.14
2023-06-08T15:52:35.057Z,5.09
2023-06-08T15:54:06.734Z,4.76
2023-06-08T15:55:43.334Z,4.41
2023-06-08T15:57:15.006Z,4.24
2023-06-08T15:58:51.630Z,4.06
2023-06-08T16:00:23.614Z,4.23
2023-06-08T16:02:10.614Z,4.90
2023-06-08T16:03:42.492Z,5.73
2023-06-08T16:05:24.565Z,5.20
2023-06-08T16:06:56.536Z,4.68
2023-06-08T16:08:28.196Z,4.97
2023-06-08T16:10:05.136Z,5.47
2023-06-08T16:11:37.089Z,5.56
2023-06-08T16:13:23.860Z,4.76
2023-06-08T16:14:55.515Z,4.31
2023-06-08T16:16:27.219Z,4.38
2023-06-08T16:18:25.388Z,5.26
2023-06-08T16:20:17.082Z,5.74
2023-06-08T16:22:03.660Z,5.07
2023-06-08T16:23:35.389Z,4.00
2023-06-08T16:25:18.501Z,5.52
2023-06-08T16:26:50.165Z,4.86
2023-06-08T16:28:21.812Z,5.83
2023-06-08T16:29:54.759Z,4.21
2023-06-08T16:31:27.663Z,4.45
2023-06-08T16:33:09.565Z,4.80
2023-06-08T16:34:41.269Z,4.57
2023-06-08T16:36:13.394Z,5.92
2023-06-08T16:37:45.053Z,4.64
2023-06-08T16:39:21.754Z,4.57
2023-06-08T16:40:58.312Z,6.06
2023-06-08T16:42:29.955Z,4.99
2023-06-08T16:44:02.006Z,5.69
2023-06-08T16:45:38.741Z,6.12
2023-06-08T16:47:10.417Z,5.69
2023-06-08T16:48:42.061Z,7.43
2023-06-08T16:50:13.646Z,5.49
2023-06-08T16:51:45.356Z,5.56
2023-06-08T16:53:22.175Z,5.71
2023-06-08T16:54:53.835Z,4.51
2023-06-08T16:56:25.462Z,7.40
2023-06-08T16:57:57.141Z,5.84
2023-06-08T16:59:28.923Z,5.96
2023-06-08T17:01:00.739Z,6.04
2023-06-08T17:02:32.566Z,5.33
2023-06-08T17:04:09.334Z,4.56
2023-06-08T17:05:41.053Z,6.30
2023-06-08T17:07:17.792Z,5.49
2023-06-08T17:08:49.388Z,4.83
2023-06-08T17:10:20.977Z,7.63
2023-06-08T17:11:52.572Z,5.47
2023-06-08T17:13:34.424Z,6.43
2023-06-08T17:15:05.958Z,7.48
2023-06-08T17:16:47.926Z,6.66
2023-06-08T17:18:24.537Z,5.86
2023-06-08T17:19:56.289Z,5.02
2023-06-08T17:21:27.944Z,6.48
2023-06-08T17:22:59.841Z,5.94
2023-06-08T17:24:31.491Z,6.16
2023-06-08T17:26:03.070Z,5.57
2023-06-08T17:27:34.722Z,5.63
2023-06-08T17:29:06.510Z,5.69
2023-06-08T17:30:39.939Z,5.39
2023-06-08T17:32:16.631Z,5.21
2023-06-08T17:33:48.195Z,7.75
2023-06-08T17:35:19.826Z,6.40
2023-06-08T17:36:51.533Z,6.58
2023-06-08T17:38:23.151Z,6.45
2023-06-08T17:39:54.745Z,5.81
2023-06-08T17:41:26.392Z,5.32
2023-06-08T17:42:57.999Z,5.91
2023-06-08T17:44:29.634Z,6.68
2023-06-08T17:46:06.197Z,5.99
2023-06-08T17:47:37.900Z,6.32
2023-06-08T17:49:09.773Z,6.15
2023-06-08T17:50:41.410Z,7.10
2023-06-08T17:52:13.033Z,6.65
2023-06-08T17:53:44.711Z,7.04
2023-06-08T17:55:16.443Z,7.05
2023-06-08T17:56:48.049Z,5.67
2023-06-08T17:58:19.635Z,5.66
2023-06-08T17:59:51.356Z,7.30
2023-06-08T18:01:23.842Z,7.15
2023-06-08T18:02:55.539Z,6.61
2023-06-08T18:04:27.227Z,5.75
2023-06-08T18:06:11.423Z,6.84
2023-06-08T18:07:51.564Z,4.86
2023-06-08T18:09:23.305Z,4.46
2023-06-08T18:10:54.898Z,8.03
2023-06-08T18:12:31.790Z,6.96
2023-06-08T18:14:03.408Z,6.12
2023-06-08T18:15:34.964Z,6.32
2023-06-08T18:17:11.563Z,7.92
2023-06-08T18:18:43.333Z,6.78
2023-06-08T18:20:14.914Z,5.76
2023-06-08T18:21:46.532Z,5.93
2023-06-08T18:23:18.317Z,6.41
2023-06-08T18:24:50.318Z,5.94
2023-06-08T18:26:22.251Z,5.82
2023-06-08T18:27:53.794Z,6.69
2023-06-08T18:29:25.410Z,7.72
2023-06-08T18:30:57.033Z,8.26
2023-06-08T18:32:28.804Z,7.44
2023-06-08T18:34:00.588Z,6.74
2023-06-08T18:35:32.107Z,5.66
2023-06-08T18:37:03.608Z,6.29
2023-06-08T18:38:35.179Z,5.38
2023-06-08T18:40:06.773Z,7.25
2023-06-08T18:41:38.399Z,7.56
2023-06-08T18:43:10.393Z,8.99
2023-06-08T18:44:43.245Z,7.61
2023-06-08T18:46:14.953Z,6.48
2023-06-08T18:47:46.636Z,7.07
2023-06-08T18:49:18.757Z,6.58
2023-06-08T18:50:50.318Z,6.33
2023-06-08T18:52:22.067Z,8.19
2023-06-08T18:53:53.561Z,6.87
2023-06-08T18:55:28.211Z,7.42
2023-06-08T18:57:01.198Z,8.29
2023-06-08T18:58:32.960Z,6.69
2023-06-08T19:00:09.928Z,8.50
2023-06-08T19:01:41.886Z,7.50
2023-06-08T19:03:20.156Z,6.89
2023-06-08T19:04:51.835Z,7.80
2023-06-08T19:06:23.319Z,8.05
2023-06-08T19:07:54.901Z,9.91
2023-06-08T19:09:26.419Z,6.37
2023-06-08T19:10:57.881Z,6.86
2023-06-08T19:12:29.377Z,6.54
2023-06-08T19:14:05.892Z,6.71
2023-06-08T19:15:37.467Z,7.25
2023-06-08T19:17:51.644Z,8.43
2023-06-08T19:19:28.343Z,8.70
2023-06-08T19:21:02.459Z,6.63
2023-06-08T19:22:34.321Z,7.46
2023-06-08T19:24:05.968Z,7.41
2023-06-08T19:25:37.571Z,7.20
2023-06-08T19:27:09.089Z,5.71
2023-06-08T19:28:40.687Z,8.37
2023-06-08T19:30:12.322Z,7.50
2023-06-08T19:31:44.066Z,8.15
2023-06-08T19:33:15.595Z,7.09
2023-06-08T19:34:47.248Z,6.60
2023-06-08T19:36:18.746Z,6.92
2023-06-08T19:37:50.677Z,9.05
2023-06-08T19:39:22.140Z,8.69
2023-06-08T19:40:53.780Z,8.37
2023-06-08T19:42:25.235Z,6.85
2023-06-08T19:44:02.319Z,7.87
2023-06-08T19:45:34.443Z,9.12
2023-06-08T19:47:06.196Z,9.54
2023-06-08T19:48:37.809Z,7.67
2023-06-08T19:50:09.813Z,9.40
2023-06-08T19:51:41.446Z,9.36
2023-06-08T19:53:12.976Z,9.00
2023-06-08T19:54:50.380Z,7.93
2023-06-08T19:56:22.046Z,9.57
2023-06-08T19:57:53.515Z,8.37
2023-06-08T19:59:26.212Z,8.49
2023-06-08T20:00:57.808Z,9.31
2023-06-08T20:02:29.753Z,9.19
2023-06-08T20:04:01.491Z,8.73
2023-06-08T20:05:33.359Z,9.62
2023-06-08T20:07:04.859Z,6.53
2023-06-08T20:08:36.457Z,8.15
2023-06-08T20:10:08.282Z,10.16
2023-06-08T20:11:39.943Z,10.36
2023-06-08T20:13:11.665Z,7.38